createdAt,value
2023-03-25T00:01:25.664Z,13.10
2023-03-25T00:03:54.010Z,13.10
2023-03-25T00:06:22.520Z,13.10
2023-03-25T00:08:51.067Z,13.10
2023-03-25T00:11:24.921Z,13.10
2023-03-25T00:13:54.091Z,13.10
2023-03-25T00:16:22.433Z,13.10
2023-03-25T00:18:51.369Z,13.10
2023-03-25T00:21:19.895Z,13.10
2023-03-25T00:23:48.263Z,13.10
2023-03-25T00:26:16.591Z,13.10
2023-03-25T00:28:46.537Z,13.10
2023-03-25T00:31:16.209Z,13.10
2023-03-25T00:33:44.868Z,13.10
2023-03-25T00:36:14.650Z,13.10
2023-03-25T00:38:43.960Z,13.30
2023-03-25T00:41:14.610Z,13.10
2023-03-25T00:43:48.502Z,13.10
2023-03-25T00:46:17.415Z,13.10
2023-03-25T00:48:46.057Z,13.10
2023-03-25T00:51:19.354Z,13.10
2023-03-25T00:53:48.824Z,13.10
2023-03-25T00:56:17.140Z,13.10
2023-03-25T00:58:45.495Z,13.10
2023-03-25T01:01:17.454Z,13.00
2023-03-25T01:03:46.468Z,13.10
2023-03-25T01:06:17.355Z,13.00
2023-03-25T01:08:47.219Z,13.00
2023-03-25T01:11:21.423Z,13.00
2023-03-25T01:13:52.388Z,13.10
2023-03-25T01:16:22.569Z,13.00
2023-03-25T01:18:51.770Z,13.00
2023-03-25T01:21:22.283Z,13.00
2023-03-25T01:23:50.841Z,13.00
2023-03-25T01:26:19.452Z,13.00
2023-03-25T01:28:47.846Z,13.00
2023-03-25T01:31:16.899Z,12.90
2023-03-25T01:33:46.757Z,12.90
2023-03-25T01:36:15.283Z,12.90
2023-03-25T01:38:43.990Z,12.90
2023-03-25T01:41:12.617Z,12.90
2023-03-25T01:43:41.182Z,12.90
2023-03-25T01:46:15.159Z,12.90
2023-03-25T01:48:50.019Z,12.90
2023-03-25T01:51:21.467Z,12.80
2023-03-25T01:53:51.590Z,12.80
2023-03-25T01:56:23.601Z,12.80
2023-03-25T01:58:53.944Z,13.00
2023-03-25T02:01:22.891Z,12.80
2023-03-25T02:03:55.154Z,12.80
2023-03-25T02:06:28.571Z,12.80
2023-03-25T02:08:59.254Z,12.80
2023-03-25T02:11:29.539Z,12.80
2023-03-25T02:14:01.184Z,12.80
2023-03-25T02:16:39.006Z,12.80
2023-03-25T02:19:40.980Z,12.80
2023-03-25T02:22:38.723Z,12.80
2023-03-25T02:25:25.216Z,12.80
2023-03-25T02:28:10.183Z,12.80
2023-03-25T02:31:03.597Z,12.80
2023-03-25T02:34:07.559Z,12.70
2023-03-25T02:37:01.517Z,12.70
2023-03-25T02:39:38.362Z,12.70
2023-03-25T02:42:15.735Z,12.70
2023-03-25T02:44:51.788Z,12.70
2023-03-25T02:47:22.654Z,12.70
2023-03-25T02:49:54.675Z,12.60
2023-03-25T02:52:26.495Z,12.60
2023-03-25T02:55:01.885Z,12.70
2023-03-25T02:57:34.849Z,12.60
2023-03-25T03:00:10.362Z,12.60
2023-03-25T03:02:39.705Z,12.60
2023-03-25T03:05:24.203Z,12.60
2023-03-25T03:07:56.320Z,12.60
2023-03-25T03:10:31.421Z,12.60
2023-03-25T03:13:11.136Z,12.60
2023-03-25T03:15:47.430Z,12.60
2023-03-25T03:18:27.215Z,12.60
2023-03-25T03:21:06.794Z,12.60
2023-03-25T03:23:42.237Z,12.60
2023-03-25T03:26:21.659Z,12.60
2023-03-25T03:28:55.541Z,12.60
2023-03-25T03:31:50.824Z,12.60
2023-03-25T03:34:24.380Z,12.60
2023-03-25T03:36:55.221Z,12.60
2023-03-25T03:39:26.607Z,12.50
2023-03-25T03:42:00.588Z,12.60
2023-03-25T03:44:33.268Z,12.50
2023-03-25T03:47:05.391Z,12.50
2023-03-25T03:49:39.353Z,12.50
2023-03-25T03:52:12.568Z,12.50
2023-03-25T03:54:47.298Z,12.50
2023-03-25T03:57:22.072Z,12.50
2023-03-25T03:59:57.626Z,12.50
2023-03-25T04:02:29.921Z,12.70
2023-03-25T04:05:00.745Z,12.50
2023-03-25T04:07:39.058Z,12.30
2023-03-25T04:10:18.603Z,12.50
2023-03-25T04:12:52.679Z,12.50
2023-03-25T04:15:21.424Z,12.40
2023-03-25T04:17:49.901Z,12.40
2023-03-25T04:20:23.773Z,12.50
2023-03-25T04:22:52.923Z,12.40
2023-03-25T04:25:25.296Z,12.50
2023-03-25T04:27:58.866Z,12.50
2023-03-25T04:30:31.139Z,12.40
2023-03-25T04:33:00.732Z,12.40
2023-03-25T04:35:29.226Z,12.40
2023-03-25T04:37:57.833Z,12.40
2023-03-25T04:40:26.786Z,12.40
2023-03-25T04:42:57.511Z,12.40
2023-03-25T04:45:28.869Z,12.40
2023-03-25T04:47:58.071Z,12.40
2023-03-25T04:50:29.107Z,12.40
2023-03-25T04:53:01.615Z,12.40
2023-03-25T04:55:30.100Z,12.40
2023-03-25T04:57:59.788Z,12.40
2023-03-25T05:00:28.222Z,12.40
2023-03-25T05:03:01.812Z,12.40
2023-03-25T05:05:30.426Z,12.40
2023-03-25T05:07:59.193Z,12.40
2023-03-25T05:10:29.761Z,12.40
2023-03-25T05:13:03.674Z,12.40
2023-03-25T05:15:35.574Z,12.40
2023-03-25T05:18:04.130Z,12.40
2023-03-25T05:20:35.144Z,12.40
2023-03-25T05:23:03.468Z,12.30
2023-03-25T05:25:34.502Z,12.30
2023-03-25T05:28:06.128Z,12.20
2023-03-25T05:30:39.254Z,12.20
2023-03-25T05:33:08.139Z,12.20
2023-03-25T05:35:36.800Z,11.90
2023-03-25T05:38:06.065Z,12.20
2023-03-25T05:40:34.753Z,12.20
2023-03-25T05:43:06.800Z,12.20
2023-03-25T05:45:36.457Z,12.20
2023-03-25T05:48:05.427Z,12.50
2023-03-25T05:50:34.063Z,12.20
2023-03-25T05:53:02.545Z,12.20
2023-03-25T05:55:30.988Z,12.20
2023-03-25T05:57:59.467Z,12.20
2023-03-25T06:00:30.643Z,12.20
2023-03-25T06:03:00.241Z,12.20
2023-03-25T06:05:29.748Z,12.20
2023-03-25T06:07:58.258Z,12.10
2023-03-25T06:10:26.926Z,12.20
2023-03-25T06:12:55.314Z,12.20
2023-03-25T06:15:29.178Z,12.10
2023-03-25T06:17:59.348Z,12.10
2023-03-25T06:20:28.466Z,12.10
2023-03-25T06:22:57.110Z,12.10
2023-03-25T06:25:26.893Z,12.10
2023-03-25T06:27:56.212Z,12.10
2023-03-25T06:30:24.690Z,12.10
2023-03-25T06:32:55.910Z,12.10
2023-03-25T06:35:25.882Z,12.10
2023-03-25T06:37:54.471Z,12.10
2023-03-25T06:40:35.111Z,12.10
2023-03-25T06:43:05.097Z,12.10
2023-03-25T06:46:09.757Z,12.00
2023-03-25T06:48:58.235Z,12.10
2023-03-25T06:51:28.078Z,12.10
2023-03-25T06:53:56.540Z,12.10
2023-03-25T06:56:25.374Z,12.00
2023-03-25T06:58:53.988Z,12.10
2023-03-25T07:01:22.807Z,12.10
2023-03-25T07:03:51.258Z,12.10
2023-03-25T07:06:21.952Z,12.00
2023-03-25T07:08:52.360Z,12.00
2023-03-25T07:11:26.240Z,12.10
2023-03-25T07:13:54.690Z,12.10
2023-03-25T07:16:24.250Z,12.10
2023-03-25T07:18:53.474Z,12.10
2023-03-25T07:21:22.284Z,12.10
2023-03-25T07:23:53.449Z,12.10
2023-03-25T07:26:22.094Z,12.10
2023-03-25T07:28:50.495Z,12.10
2023-03-25T07:31:18.897Z,12.10
2023-03-25T07:33:47.497Z,12.10
2023-03-25T07:36:16.010Z,12.30
2023-03-25T07:38:45.559Z,12.10
2023-03-25T07:41:15.401Z,12.10
2023-03-25T07:44:15.578Z,12.10
2023-03-25T07:46:46.383Z,12.10
2023-03-25T07:49:14.839Z,12.00
2023-03-25T07:51:43.317Z,12.00
2023-03-25T07:54:12.356Z,12.00
2023-03-25T07:56:42.089Z,12.00
2023-03-25T07:59:10.614Z,12.00
2023-03-25T08:01:39.002Z,12.10
2023-03-25T08:04:07.755Z,12.10
2023-03-25T08:06:36.371Z,12.10
2023-03-25T08:09:05.013Z,12.00
2023-03-25T08:11:34.400Z,12.00
2023-03-25T08:14:04.520Z,12.00
2023-03-25T08:16:32.836Z,12.00
2023-03-25T08:19:01.170Z,12.10
2023-03-25T08:21:30.077Z,12.10
2023-03-25T08:24:02.428Z,12.10
2023-03-25T08:26:31.700Z,12.10
2023-03-25T08:29:02.588Z,12.10
2023-03-25T08:31:33.608Z,12.10
2023-03-25T08:34:02.982Z,12.20
2023-03-25T08:36:31.397Z,12.20
2023-03-25T08:38:59.853Z,12.20
2023-03-25T08:41:28.319Z,12.20
2023-03-25T08:43:56.657Z,12.20
2023-03-25T08:46:25.099Z,12.20
2023-03-25T08:48:56.162Z,12.20
2023-03-25T08:51:24.693Z,12.30
2023-03-25T08:53:53.171Z,12.30
2023-03-25T08:56:21.582Z,12.30
2023-03-25T08:58:49.871Z,12.30
2023-03-25T09:01:18.326Z,12.10
2023-03-25T09:03:47.088Z,12.30
2023-03-25T09:06:16.763Z,12.30
2023-03-25T09:08:45.246Z,12.40
2023-03-25T09:11:27.238Z,12.30
2023-03-25T09:14:05.140Z,12.30
2023-03-25T09:16:34.376Z,12.40
2023-03-25T09:19:02.958Z,12.40
2023-03-25T09:21:32.802Z,12.40
2023-03-25T09:24:01.321Z,12.30
2023-03-25T09:26:29.900Z,12.40
2023-03-25T09:28:58.344Z,12.40
2023-03-25T09:31:26.858Z,12.40
2023-03-25T09:33:55.501Z,12.40
2023-03-25T09:36:23.900Z,12.40
2023-03-25T09:38:53.729Z,12.40
2023-03-25T09:41:32.948Z,12.40
2023-03-25T09:44:13.961Z,12.40
2023-03-25T09:46:42.811Z,12.40
2023-03-25T09:49:16.464Z,12.10
2023-03-25T09:51:48.128Z,12.40
2023-03-25T09:54:24.998Z,12.40
2023-03-25T09:56:56.142Z,12.40
2023-03-25T09:59:34.126Z,12.40
2023-03-25T10:02:09.690Z,12.40
2023-03-25T10:05:13.420Z,12.40
2023-03-25T10:07:58.655Z,12.40
2023-03-25T10:10:33.394Z,12.50
2023-03-25T10:13:12.901Z,12.50
2023-03-25T10:15:50.385Z,12.40
2023-03-25T10:18:51.558Z,12.50
2023-03-25T10:21:23.881Z,12.50
2023-03-25T10:24:02.190Z,12.50
2023-03-25T10:26:38.268Z,12.50
2023-03-25T10:29:09.743Z,12.50
2023-03-25T10:31:53.451Z,12.50
2023-03-25T10:34:29.471Z,12.50
2023-03-25T10:37:00.415Z,12.50
2023-03-25T10:39:37.338Z,12.50
2023-03-25T10:42:20.570Z,12.50
2023-03-25T10:44:49.686Z,12.50
2023-03-25T10:47:21.568Z,12.50
2023-03-25T10:49:52.376Z,12.50
2023-03-25T10:52:21.451Z,12.50
2023-03-25T10:54:55.085Z,12.50
2023-03-25T10:57:29.159Z,12.50
2023-03-25T11:00:06.029Z,12.50
2023-03-25T11:02:35.633Z,12.50
2023-03-25T11:05:06.654Z,12.50
2023-03-25T11:07:37.564Z,12.40
2023-03-25T11:10:18.625Z,12.40
2023-03-25T11:12:51.621Z,12.30
2023-03-25T11:15:23.135Z,12.20
2023-03-25T11:18:00.252Z,12.20
2023-03-25T11:20:31.565Z,12.10
2023-03-25T11:23:07.699Z,12.10
2023-03-25T11:25:42.059Z,12.00
2023-03-25T11:28:21.635Z,12.00
2023-03-25T11:31:09.713Z,12.00
2023-03-25T11:33:39.150Z,12.10
2023-03-25T11:36:29.070Z,12.10
2023-03-25T11:39:04.360Z,12.10
2023-03-25T11:41:35.750Z,12.10
2023-03-25T11:44:07.136Z,12.20
2023-03-25T11:46:42.679Z,12.20
2023-03-25T11:49:12.886Z,12.20
2023-03-25T11:51:41.620Z,12.20
2023-03-25T11:54:13.382Z,12.20
2023-03-25T11:56:44.954Z,12.10
2023-03-25T11:59:24.841Z,12.10
2023-03-25T12:02:02.591Z,12.10
2023-03-25T12:04:32.725Z,12.10
2023-03-25T12:07:03.069Z,12.10
2023-03-25T12:09:33.006Z,12.10
2023-03-25T12:12:42.092Z,12.20
2023-03-25T12:15:21.920Z,12.20
2023-03-25T12:18:10.131Z,12.20
2023-03-25T12:20:51.492Z,12.20
2023-03-25T12:23:27.830Z,12.20
2023-03-25T12:26:02.427Z,12.20
2023-03-25T12:29:05.881Z,12.30
2023-03-25T12:31:44.834Z,12.30
2023-03-25T12:34:22.614Z,12.30
2023-03-25T12:37:01.837Z,12.30
2023-03-25T12:39:44.366Z,12.40
2023-03-25T12:42:25.740Z,12.40
2023-03-25T12:45:04.668Z,12.50
2023-03-25T12:47:38.328Z,12.50
2023-03-25T12:50:24.960Z,12.50
2023-03-25T12:52:59.023Z,12.50
2023-03-25T12:55:45.392Z,12.50
2023-03-25T12:58:34.252Z,12.60
2023-03-25T13:01:11.706Z,12.60
2023-03-25T13:04:16.095Z,12.60
2023-03-25T13:06:54.298Z,12.60
2023-03-25T13:09:26.694Z,12.60
2023-03-25T13:11:58.595Z,12.50
2023-03-25T13:14:32.033Z,12.50
2023-03-25T13:17:05.562Z,12.40
2023-03-25T13:19:41.229Z,12.40
2023-03-25T13:22:19.477Z,12.30
2023-03-25T13:24:52.472Z,12.30
2023-03-25T13:27:21.036Z,12.20
2023-03-25T13:29:53.016Z,12.20
2023-03-25T13:32:26.622Z,12.20
2023-03-25T13:35:00.623Z,12.20
2023-03-25T13:37:36.058Z,12.20
2023-03-25T13:40:24.555Z,12.20
2023-03-25T13:42:59.105Z,12.30
2023-03-25T13:45:32.826Z,12.30
2023-03-25T13:48:11.273Z,12.40
2023-03-25T13:50:42.235Z,12.40
2023-03-25T13:53:17.254Z,12.40
2023-03-25T13:55:51.267Z,12.50
2023-03-25T13:58:35.082Z,12.50
2023-03-25T14:01:28.322Z,12.50
2023-03-25T14:04:19.415Z,12.60
2023-03-25T14:07:40.485Z,12.60
2023-03-25T14:10:30.907Z,12.70
2023-03-25T14:13:02.892Z,12.60
2023-03-25T14:15:34.727Z,12.70
2023-03-25T14:18:04.062Z,12.70
2023-03-25T14:20:36.049Z,12.60
2023-03-25T14:23:08.256Z,12.70
2023-03-25T14:25:41.616Z,12.60
2023-03-25T14:28:16.725Z,12.60
2023-03-25T14:30:45.784Z,12.70
2023-03-25T14:33:14.251Z,12.60
2023-03-25T14:35:52.719Z,12.60
2023-03-25T14:38:52.913Z,12.60
2023-03-25T14:42:00.790Z,12.60
2023-03-25T14:44:33.131Z,12.60
2023-03-25T14:47:25.786Z,12.60
2023-03-25T14:50:01.482Z,12.60
2023-03-25T14:52:33.567Z,12.60
2023-03-25T14:55:11.310Z,12.50
2023-03-25T14:57:43.655Z,12.50
2023-03-25T15:00:22.715Z,12.50
2023-03-25T15:02:54.501Z,12.40
2023-03-25T15:05:28.834Z,12.40
2023-03-25T15:08:02.140Z,12.30
2023-03-25T15:10:36.656Z,12.20
2023-03-25T15:13:07.664Z,12.20
2023-03-25T15:15:57.930Z,12.10
2023-03-25T15:18:59.224Z,12.00
2023-03-25T15:21:31.876Z,12.00
2023-03-25T15:24:07.543Z,11.90
2023-03-25T15:26:40.832Z,11.90
2023-03-25T15:29:41.035Z,11.90
2023-03-25T15:32:23.859Z,11.80
2023-03-25T15:35:19.403Z,11.90
2023-03-25T15:38:17.733Z,11.80
2023-03-25T15:41:02.393Z,11.90
2023-03-25T15:44:14.647Z,11.90
2023-03-25T15:47:09.786Z,11.90
2023-03-25T15:50:05.652Z,12.00
2023-03-25T15:53:00.438Z,12.00
2023-03-25T15:55:32.402Z,12.00
2023-03-25T15:58:04.042Z,12.00
2023-03-25T16:00:37.466Z,12.00
2023-03-25T16:03:12.913Z,12.10
2023-03-25T16:05:47.969Z,12.00
2023-03-25T16:08:21.742Z,12.10
2023-03-25T16:10:50.576Z,12.10
2023-03-25T16:13:24.116Z,12.10
2023-03-25T16:15:57.417Z,12.10
2023-03-25T16:18:26.822Z,12.20
2023-03-25T16:20:58.444Z,12.20
2023-03-25T16:23:27.321Z,12.20
2023-03-25T16:25:56.719Z,12.20
2023-03-25T16:28:29.665Z,12.20
2023-03-25T16:30:59.587Z,12.30
2023-03-25T16:33:30.483Z,12.30
2023-03-25T16:36:01.570Z,12.30
2023-03-25T16:38:31.631Z,12.30
2023-03-25T16:41:04.509Z,12.30
2023-03-25T16:43:32.965Z,12.20
2023-03-25T16:46:04.631Z,12.30
2023-03-25T16:48:35.464Z,12.20
2023-03-25T16:51:14.905Z,12.20
2023-03-25T16:53:43.843Z,12.20
2023-03-25T16:56:24.510Z,12.20
2023-03-25T16:59:02.692Z,12.20
2023-03-25T17:01:38.459Z,12.20
2023-03-25T17:04:11.747Z,12.20
2023-03-25T17:06:43.211Z,12.20
2023-03-25T17:09:17.180Z,12.20
2023-03-25T17:11:46.870Z,12.20
2023-03-25T17:14:19.752Z,12.10
2023-03-25T17:16:52.965Z,12.10
2023-03-25T17:19:22.806Z,12.20
2023-03-25T17:22:03.650Z,12.20
2023-03-25T17:24:41.761Z,12.10
2023-03-25T17:27:22.633Z,12.10
2023-03-25T17:29:53.783Z,12.10
2023-03-25T17:32:24.107Z,12.10
2023-03-25T17:34:58.388Z,12.10
2023-03-25T17:37:28.456Z,12.00
2023-03-25T17:40:04.242Z,12.00
2023-03-25T17:42:34.799Z,12.00
2023-03-25T17:45:03.102Z,12.10
2023-03-25T17:47:33.071Z,12.00
2023-03-25T17:50:11.564Z,12.00
2023-03-25T17:52:40.230Z,12.10
2023-03-25T17:55:10.239Z,12.10
2023-03-25T17:57:39.561Z,12.10
2023-03-25T18:00:11.998Z,12.10
2023-03-25T18:02:42.092Z,12.10
2023-03-25T18:05:14.218Z,12.10
2023-03-25T18:07:44.122Z,12.10
2023-03-25T18:10:17.047Z,12.10
2023-03-25T18:12:46.067Z,12.10
2023-03-25T18:15:15.050Z,12.10
2023-03-25T18:17:45.488Z,12.10
2023-03-25T18:20:19.696Z,12.10
2023-03-25T18:22:48.314Z,12.10
2023-03-25T18:25:16.811Z,12.10
2023-03-25T18:27:50.170Z,12.10
2023-03-25T18:30:21.882Z,12.10
2023-03-25T18:32:52.303Z,12.10
2023-03-25T18:35:20.946Z,12.10
2023-03-25T18:37:49.500Z,12.10
2023-03-25T18:40:21.141Z,12.10
2023-03-25T18:42:49.620Z,12.10
2023-03-25T18:45:18.328Z,12.10
2023-03-25T18:47:47.295Z,12.10
2023-03-25T18:50:26.598Z,12.10
2023-03-25T18:52:56.457Z,12.10
2023-03-25T18:55:26.998Z,12.10
2023-03-25T18:57:55.715Z,12.10
2023-03-25T19:00:26.268Z,12.10
2023-03-25T19:02:55.267Z,12.10
2023-03-25T19:05:26.422Z,12.10
2023-03-25T19:07:55.379Z,12.20
2023-03-25T19:10:25.937Z,12.20
2023-03-25T19:12:54.555Z,12.10
2023-03-25T19:15:26.809Z,12.10
2023-03-25T19:17:58.467Z,12.10
2023-03-25T19:20:32.237Z,12.10
2023-03-25T19:23:01.405Z,12.10
2023-03-25T19:25:30.326Z,12.10
2023-03-25T19:27:58.686Z,12.10
2023-03-25T19:30:27.155Z,12.10
2023-03-25T19:32:57.144Z,12.10
2023-03-25T19:35:27.676Z,12.10
2023-03-25T19:37:57.125Z,12.00
2023-03-25T19:40:28.139Z,11.90
2023-03-25T19:42:58.633Z,12.00
2023-03-25T19:45:28.277Z,12.00
2023-03-25T19:47:56.927Z,12.00
2023-03-25T19:50:29.311Z,12.10
2023-03-25T19:52:58.276Z,12.00
2023-03-25T19:55:27.172Z,12.00
2023-03-25T19:57:55.990Z,12.00
2023-03-25T20:00:26.554Z,12.10
2023-03-25T20:02:58.100Z,12.10
2023-03-25T20:05:33.479Z,12.00
2023-03-25T20:08:01.969Z,12.00
2023-03-25T20:10:31.580Z,12.00
2023-03-25T20:13:04.241Z,12.00
2023-03-25T20:15:32.733Z,12.00
2023-03-25T20:18:01.385Z,12.00
2023-03-25T20:20:31.530Z,12.00
2023-03-25T20:23:03.048Z,12.00
2023-03-25T20:25:31.569Z,12.10
2023-03-25T20:28:00.392Z,12.10
2023-03-25T20:30:29.087Z,12.10
2023-03-25T20:32:58.484Z,12.10
2023-03-25T20:35:27.970Z,12.10
2023-03-25T20:37:57.951Z,12.10
2023-03-25T20:40:37.362Z,12.10
2023-03-25T20:43:14.132Z,12.10
2023-03-25T20:45:44.103Z,12.10
2023-03-25T20:48:12.704Z,12.10
2023-03-25T20:50:41.050Z,12.10
2023-03-25T20:53:10.822Z,12.00
2023-03-25T20:55:39.722Z,12.10
2023-03-25T20:58:08.859Z,12.00
2023-03-25T21:00:37.500Z,12.10
2023-03-25T21:03:06.214Z,12.10
2023-03-25T21:05:34.901Z,12.10
2023-03-25T21:08:03.202Z,12.00
2023-03-25T21:10:32.974Z,12.00
2023-03-25T21:13:01.430Z,12.00
2023-03-25T21:15:31.428Z,12.10
2023-03-25T21:18:00.518Z,12.00
2023-03-25T21:20:32.681Z,11.90
2023-03-25T21:23:01.128Z,12.10
2023-03-25T21:25:35.095Z,12.00
2023-03-25T21:28:06.681Z,12.10
2023-03-25T21:30:35.028Z,12.00
2023-03-25T21:33:03.583Z,12.00
2023-03-25T21:35:33.648Z,12.10
2023-03-25T21:38:01.994Z,12.10
2023-03-25T21:40:39.488Z,12.00
2023-03-25T21:43:10.312Z,12.00
2023-03-25T21:45:40.796Z,12.00
2023-03-25T21:48:09.342Z,12.10
2023-03-25T21:50:38.357Z,12.10
2023-03-25T21:53:13.243Z,12.10
2023-03-25T21:55:41.599Z,12.10
2023-03-25T21:58:13.026Z,12.10
2023-03-25T22:00:41.671Z,12.10
2023-03-25T22:03:12.059Z,12.00
2023-03-25T22:05:41.157Z,11.90
2023-03-25T22:08:09.681Z,11.90
2023-03-25T22:10:37.952Z,11.90
2023-03-25T22:13:06.344Z,11.90
2023-03-25T22:15:36.159Z,11.80
2023-03-25T22:18:04.549Z,11.80
2023-03-25T22:20:33.010Z,11.70
2023-03-25T22:23:04.193Z,11.70
2023-03-25T22:25:32.577Z,11.70
2023-03-25T22:28:01.101Z,11.70
2023-03-25T22:30:29.389Z,11.70
2023-03-25T22:32:59.085Z,11.70
2023-03-25T22:35:28.814Z,11.60
2023-03-25T22:37:57.615Z,11.60
2023-03-25T22:40:28.855Z,11.60
2023-03-25T22:42:57.177Z,11.60
2023-03-25T22:45:28.309Z,11.60
2023-03-25T22:47:58.046Z,11.60
2023-03-25T22:50:26.322Z,11.70
2023-03-25T22:52:54.699Z,11.70
2023-03-25T22:55:22.988Z,11.70
2023-03-25T22:57:51.338Z,11.70
2023-03-25T23:00:19.903Z,11.70
2023-03-25T23:02:48.661Z,11.70
2023-03-25T23:05:19.522Z,11.70
2023-03-25T23:07:47.991Z,11.70
2023-03-25T23:10:16.814Z,11.80
2023-03-25T23:12:45.228Z,11.70
2023-03-25T23:15:14.063Z,11.80
2023-03-25T23:17:42.485Z,11.80
2023-03-25T23:20:11.588Z,11.80
2023-03-25T23:22:41.519Z,11.80
2023-03-25T23:25:10.986Z,11.80
2023-03-25T23:27:39.499Z,11.80
2023-03-25T23:30:09.381Z,11.80
2023-03-25T23:32:38.242Z,11.80
2023-03-25T23:35:08.412Z,11.80
2023-03-25T23:37:36.731Z,11.80
2023-03-25T23:40:08.674Z,11.80
2023-03-25T23:42:36.969Z,11.80
2023-03-25T23:45:06.118Z,11.80
2023-03-25T23:47:34.546Z,11.80
2023-03-25T23:50:04.122Z,11.80
2023-03-25T23:52:33.468Z,11.80
2023-03-25T23:55:01.777Z,11.80
2023-03-25T23:57:32.160Z,11.80
